world map with MVB marked

MVB - Airport

This information may not be accurate or current and is not valid for navigation or flight planning. No warranty of fitness for any purpose is made or implied.

flag of Gabon

Donate via PayPal

Additional information is available on the NEW Great Circle Mapper

Location
City:  Franceville, Haut-Ogooué, Gabon
Name:M'Vengué El Hadj Omar Bongo Ondimba International Airport
ICAO / IATA:FOON / MVB

Details
Type:Airport (Aerodrome, Airfield)
Use:Public/Civil
Latitude:1°39'07"S (-1.651943)
Longitude:13°26'05"E (13.434722)
Elevation:1450 ft (442 m)
Runways:1
Longest:10105 × 148 ft (3080 × 45 m)

Time
Timezone:UTC+1 (DST+3)
Local Time:

Weather
METAR:FOON  041400Z 20005KT 160V320 9999 SCT016 31/23 Q1011
TAF:FOON  (expired)

Related Locations
Nearby:
Farthest:PLPA: 12015 mi / 19336 km
Palmyra Island Atoll [Palmyra Airport (Cooper)], UM

Find:

   beyond  
but within

Other Information
Maps:
Sources:

  


 


Great Circle Mapper   Great Circle Mapper
Great Circle Mapper FAQ   Great Circle Mapper FAQ
  Karl's Home Page
KLS²   KLS² Home
   GC on Facebook
Airlines of the World   Airlines of the World
Donate via PayPal


Copyright © 2004-2019, Karl L. Swartz. All rights reserved.
All trademarks mentioned herein belong to their respective owners.

Please see credits for attribution and copyright information.

Karl Swartz <karl@kls2.com>
  Powered by FreeBSD
Valid HTML 4.01!
Labeled with ICRA
hCard Microformat
Geo Microformat